Coeur d'Alene, Idaho
Current Conditions -  °F | °C
As of 7:55 PM on Saturday 20 Dec 2014 (Local Time) from KCOE Reporting Station
Overcast Overcast  
Wind Chill: 34°   Ceiling: 2500
Heat Index: 39°   Visibility: 10mi
Dew Point: 36°   Wind: 8mph
Humidity: 87%   Direction: 200°SSW
Pressure: 29.6"   Gusts: NA
Location:  47.68°N, 116.79°W
Report Text: KCOE 210355Z AUTO 20007KT 10SM SCT018 BKN025 OVC039 04/02 A2960 RMK AO1 P0001
Loading
Personal Weather Stations






























Interactive Weather Map New forecast layout! Learn more

10-Day Weather Forecast

Advertisements
Track Severe Weather on mobile